createdAt,value
2023-05-12T00:00:59.234Z,99767.50
2023-05-12T00:03:27.988Z,99759.72
2023-05-12T00:06:03.590Z,99765.91
2023-05-12T00:08:32.564Z,99756.38
2023-05-12T00:11:03.482Z,99756.38
2023-05-12T00:13:32.626Z,99765.13
2023-05-12T00:16:01.716Z,99747.78
2023-05-12T00:18:30.289Z,99766.13
2023-05-12T00:21:00.281Z,99754.00
2023-05-12T00:23:28.581Z,99760.16
2023-05-12T00:25:57.246Z,99757.53
2023-05-12T00:28:25.619Z,99758.47
2023-05-12T00:30:54.105Z,99757.63
2023-05-12T00:33:22.663Z,99750.75
2023-05-12T00:35:50.933Z,99755.94
2023-05-12T00:38:20.767Z,99769.03
2023-05-12T00:40:49.227Z,99769.03
2023-05-12T00:43:17.640Z,99761.22
2023-05-12T00:45:46.138Z,99765.56
2023-05-12T00:48:15.554Z,99769.03
2023-05-12T00:50:44.283Z,99773.38
2023-05-12T00:53:13.651Z,99772.50
2023-05-12T00:55:43.803Z,99769.88
2023-05-12T00:58:12.290Z,99770.78
2023-05-12T01:00:41.287Z,99779.44
2023-05-12T01:03:10.348Z,99779.44
2023-05-12T01:05:49.013Z,99776.88
2023-05-12T01:08:19.111Z,99782.94
2023-05-12T01:10:49.344Z,99782.13
2023-05-12T01:13:19.342Z,99791.69
2023-05-12T01:15:51.133Z,99788.19
2023-05-12T01:18:21.690Z,99788.19
2023-05-12T01:20:51.422Z,99794.25
2023-05-12T01:23:21.512Z,99793.38
2023-05-12T01:25:52.513Z,99790.78
2023-05-12T01:28:23.129Z,99796.88
2023-05-12T01:30:52.365Z,99789.84
2023-05-12T01:33:21.051Z,99796.84
2023-05-12T01:35:49.402Z,99796.88
2023-05-12T01:38:18.734Z,99795.06
2023-05-12T01:40:47.630Z,99798.53
2023-05-12T01:43:16.826Z,99795.88
2023-05-12T01:45:46.894Z,99796.78
2023-05-12T01:48:15.375Z,99804.56
2023-05-12T01:50:44.329Z,99810.56
2023-05-12T01:53:17.771Z,99812.28
2023-05-12T01:55:46.177Z,99815.69
2023-05-12T01:58:14.973Z,99811.31
2023-05-12T02:00:43.554Z,99815.66
2023-05-12T02:03:17.794Z,99822.63
2023-05-12T02:05:46.222Z,99823.53
2023-05-12T02:08:14.737Z,99821.75
2023-05-12T02:10:43.012Z,99824.38
2023-05-12T02:13:11.842Z,99818.31
2023-05-12T02:15:40.387Z,99824.41
2023-05-12T02:18:09.070Z,99823.56
2023-05-12T02:20:38.927Z,99823.63
2023-05-12T02:23:07.430Z,99827.94
2023-05-12T02:25:35.836Z,99819.28
2023-05-12T02:28:04.833Z,99830.50
2023-05-12T02:30:33.308Z,99828.75
2023-05-12T02:33:01.832Z,99836.56
2023-05-12T02:35:30.607Z,99836.56
2023-05-12T02:38:00.614Z,99835.69
2023-05-12T02:40:29.202Z,99836.53
2023-05-12T02:42:58.593Z,99826.91
2023-05-12T02:45:27.041Z,99821.69
2023-05-12T02:47:55.991Z,99818.22
2023-05-12T02:50:24.880Z,99824.31
2023-05-12T02:52:53.443Z,99832.13
2023-05-12T02:55:23.455Z,99829.56
2023-05-12T02:57:52.137Z,99823.47
2023-05-12T03:00:20.679Z,99820.03
2023-05-12T03:02:49.641Z,99836.56
2023-05-12T03:05:18.165Z,99839.13
2023-05-12T03:07:49.356Z,99835.69
2023-05-12T03:10:19.201Z,99838.28
2023-05-12T03:12:49.871Z,99832.19
2023-05-12T03:15:18.450Z,99831.34
2023-05-12T03:17:47.190Z,99837.41
2023-05-12T03:20:20.275Z,99833.03
2023-05-12T03:22:49.110Z,99834.75
2023-05-12T03:25:17.838Z,99839.91
2023-05-12T03:27:46.509Z,99843.41
2023-05-12T03:30:17.001Z,99849.47
2023-05-12T03:32:46.346Z,99841.63
2023-05-12T03:35:14.844Z,99847.69
2023-05-12T03:37:43.203Z,99836.38
2023-05-12T03:40:18.482Z,99838.97
2023-05-12T03:42:48.261Z,99849.41
2023-05-12T03:45:17.999Z,99844.19
2023-05-12T03:47:46.463Z,99852.88
2023-05-12T03:50:15.108Z,99839.78
2023-05-12T03:52:43.473Z,99851.97
2023-05-12T03:55:12.007Z,99846.72
2023-05-12T03:57:40.308Z,99849.25
2023-05-12T04:00:10.353Z,99857.94
2023-05-12T04:02:46.786Z,99856.13
2023-05-12T04:05:16.240Z,99865.69
2023-05-12T04:07:44.524Z,99857.84
2023-05-12T04:10:13.007Z,99864.78
2023-05-12T04:12:41.687Z,99857.75
2023-05-12T04:15:11.453Z,99862.97
2023-05-12T04:17:39.805Z,99869.91
2023-05-12T04:20:11.568Z,99876.00
2023-05-12T04:22:40.640Z,99880.31
2023-05-12T04:25:10.657Z,99886.38
2023-05-12T04:27:40.667Z,99881.13
2023-05-12T04:30:11.644Z,99883.69
2023-05-12T04:32:42.184Z,99882.78
2023-05-12T04:35:12.520Z,99885.38
2023-05-12T04:37:41.079Z,99891.44
2023-05-12T04:40:11.378Z,99902.78
2023-05-12T04:42:39.779Z,99899.25
2023-05-12T04:45:12.025Z,99914.06
2023-05-12T04:47:41.360Z,99901.81
2023-05-12T04:50:12.593Z,99911.38
2023-05-12T04:52:41.253Z,99914.81
2023-05-12T04:55:10.968Z,99918.31
2023-05-12T04:57:41.248Z,99924.41
2023-05-12T05:00:13.159Z,99930.56
2023-05-12T05:02:41.859Z,99932.28
2023-05-12T05:05:12.399Z,99933.19
2023-05-12T05:07:41.603Z,99929.69
2023-05-12T05:10:11.042Z,99944.50
2023-05-12T05:12:41.490Z,99941.06
2023-05-12T05:15:12.106Z,99949.72
2023-05-12T05:17:40.677Z,99955.88
2023-05-12T05:20:15.399Z,99953.25
2023-05-12T05:22:44.193Z,99961.09
2023-05-12T05:25:13.530Z,99958.44
2023-05-12T05:27:42.011Z,99961.94
2023-05-12T05:30:11.902Z,99965.38
2023-05-12T05:32:42.142Z,99971.47
2023-05-12T05:35:13.331Z,99965.31
2023-05-12T05:37:47.530Z,99973.13
2023-05-12T05:40:16.228Z,99974.84
2023-05-12T05:42:44.764Z,99973.09
2023-05-12T05:45:13.433Z,99978.25
2023-05-12T05:47:42.349Z,99982.56
2023-05-12T05:50:13.404Z,99982.56
2023-05-12T05:52:43.343Z,99979.13
2023-05-12T05:55:11.895Z,99973.91
2023-05-12T05:57:40.315Z,99979.19
2023-05-12T06:00:10.314Z,99991.34
2023-05-12T06:02:47.817Z,99993.06
2023-05-12T06:05:22.049Z,99998.28
2023-05-12T06:07:50.814Z,99993.94
2023-05-12T06:10:19.380Z,100000.06
2023-05-12T06:12:48.200Z,100003.50
2023-05-12T06:15:16.671Z,100007.00
2023-05-12T06:17:45.352Z,100001.72
2023-05-12T06:20:14.412Z,100008.72
2023-05-12T06:22:44.475Z,100013.94
2023-05-12T06:25:12.995Z,100017.38
2023-05-12T06:27:41.589Z,100021.75
2023-05-12T06:30:12.561Z,100017.38
2023-05-12T06:32:42.745Z,100018.19
2023-05-12T06:35:11.770Z,100027.81
2023-05-12T06:37:40.310Z,100020.88
2023-05-12T06:40:11.427Z,100031.34
2023-05-12T06:42:39.834Z,100030.47
2023-05-12T06:45:13.495Z,100033.97
2023-05-12T06:47:41.920Z,100034.84
2023-05-12T06:50:11.698Z,100036.56
2023-05-12T06:52:40.114Z,100038.28
2023-05-12T06:55:10.738Z,100040.84
2023-05-12T06:57:39.417Z,100044.31
2023-05-12T07:00:10.740Z,100049.53
2023-05-12T07:02:39.225Z,100050.38
2023-05-12T07:05:08.730Z,100047.78
2023-05-12T07:07:37.365Z,100044.22
2023-05-12T07:10:07.568Z,100056.47
2023-05-12T07:12:38.190Z,100052.16
2023-05-12T07:15:08.799Z,100057.38
2023-05-12T07:17:37.359Z,100047.81
2023-05-12T07:20:07.245Z,100058.28
2023-05-12T07:22:38.681Z,100060.88
2023-05-12T07:25:08.742Z,100060.94
2023-05-12T07:27:38.569Z,100069.69
2023-05-12T07:30:08.644Z,100072.44
2023-05-12T07:32:37.107Z,100069.81
2023-05-12T07:35:07.277Z,100074.22
2023-05-12T07:37:35.930Z,100069.00
2023-05-12T07:40:04.804Z,100068.16
2023-05-12T07:42:33.767Z,100082.22
2023-05-12T07:45:04.014Z,100076.13
2023-05-12T07:47:32.495Z,100083.09
2023-05-12T07:50:00.960Z,100077.88
2023-05-12T07:52:29.403Z,100087.44
2023-05-12T07:54:58.638Z,100086.56
2023-05-12T07:57:26.986Z,100090.13
2023-05-12T07:59:55.432Z,100084.09
2023-05-12T08:02:25.535Z,100081.47
2023-05-12T08:04:53.914Z,100091.16
2023-05-12T08:07:22.479Z,100085.03
2023-05-12T08:09:51.066Z,100098.13
2023-05-12T08:12:19.537Z,100100.75
2023-05-12T08:14:48.387Z,100099.97
2023-05-12T08:17:16.892Z,100098.31
2023-05-12T08:19:46.987Z,100098.22
2023-05-12T08:22:15.631Z,100097.25
2023-05-12T08:24:44.464Z,100099.81
2023-05-12T08:27:12.924Z,100094.59
2023-05-12T08:29:41.332Z,100105.97
2023-05-12T08:32:09.869Z,100102.53
2023-05-12T08:34:38.568Z,100107.78
2023-05-12T08:37:08.475Z,100113.03
2023-05-12T08:39:37.082Z,100113.97
2023-05-12T08:42:18.936Z,100110.59
2023-05-12T08:44:48.503Z,100115.81
2023-05-12T08:47:19.842Z,100116.75
2023-05-12T08:49:55.986Z,100114.22
2023-05-12T08:52:27.260Z,100114.31
2023-05-12T08:54:56.945Z,100126.59
2023-05-12T08:57:26.900Z,100123.16
2023-05-12T08:59:59.576Z,100124.94
2023-05-12T09:02:40.885Z,100121.47
2023-05-12T09:05:13.429Z,100121.53
2023-05-12T09:07:45.165Z,100131.22
2023-05-12T09:10:32.845Z,100128.72
2023-05-12T09:13:09.078Z,100119.16
2023-05-12T09:15:42.055Z,100124.50
2023-05-12T09:18:10.623Z,100120.22
2023-05-12T09:20:39.341Z,100125.53
2023-05-12T09:23:21.158Z,100125.56
2023-05-12T09:26:01.793Z,100130.09
2023-05-12T09:28:37.763Z,100128.44
2023-05-12T09:31:26.106Z,100132.00
2023-05-12T09:33:54.666Z,100132.97
2023-05-12T09:36:25.807Z,100140.00
2023-05-12T09:39:04.610Z,100140.03
2023-05-12T09:41:36.137Z,100145.28
2023-05-12T09:44:04.840Z,100134.91
2023-05-12T09:46:33.614Z,100143.69
2023-05-12T09:49:02.674Z,100141.13
2023-05-12T09:51:32.402Z,100143.84
2023-05-12T09:54:02.303Z,100141.28
2023-05-12T09:56:33.772Z,100146.69
2023-05-12T09:59:05.769Z,100145.00
2023-05-12T10:01:34.712Z,100139.00
2023-05-12T10:04:05.862Z,100139.97
2023-05-12T10:06:39.389Z,100138.25
2023-05-12T10:09:18.441Z,100132.25
2023-05-12T10:11:48.909Z,100149.75
2023-05-12T10:14:19.662Z,100142.00
2023-05-12T10:16:48.975Z,100136.06
2023-05-12T10:19:18.704Z,100141.28
2023-05-12T10:21:48.450Z,100141.34
2023-05-12T10:24:18.904Z,100143.06
2023-05-12T10:26:47.759Z,100149.19
2023-05-12T10:29:16.840Z,100143.94
2023-05-12T10:31:46.948Z,100136.16
2023-05-12T10:34:19.815Z,100143.94
2023-05-12T10:36:50.176Z,100147.44
2023-05-12T10:39:20.066Z,100136.16
2023-05-12T10:41:51.002Z,100139.69
2023-05-12T10:44:29.104Z,100140.69
2023-05-12T10:47:00.808Z,100143.41
2023-05-12T10:49:41.108Z,100144.31
2023-05-12T10:52:12.025Z,100140.06
2023-05-12T10:54:45.175Z,100144.50
2023-05-12T10:57:18.227Z,100143.69
2023-05-12T10:59:52.253Z,100131.59
2023-05-12T11:02:27.524Z,100133.38
2023-05-12T11:05:01.664Z,100130.81
2023-05-12T11:07:35.406Z,100134.34
2023-05-12T11:10:07.880Z,100136.13
2023-05-12T11:12:37.242Z,100135.28
2023-05-12T11:15:07.706Z,100133.66
2023-05-12T11:17:41.021Z,100128.47
2023-05-12T11:20:10.914Z,100132.00
2023-05-12T11:22:43.681Z,100124.22
2023-05-12T11:25:15.663Z,100129.50
2023-05-12T11:27:51.267Z,100126.97
2023-05-12T11:30:19.947Z,100129.69
2023-05-12T11:32:48.557Z,100123.66
2023-05-12T11:35:20.161Z,100122.00
2023-05-12T11:37:48.706Z,100127.34
2023-05-12T11:40:20.477Z,100131.81
2023-05-12T11:42:52.238Z,100124.84
2023-05-12T11:45:26.964Z,100135.31
2023-05-12T11:48:08.994Z,100130.97
2023-05-12T11:50:40.652Z,100125.69
2023-05-12T11:53:14.915Z,100124.00
2023-05-12T11:55:51.257Z,100131.94
2023-05-12T11:58:22.771Z,100131.94
2023-05-12T12:00:54.361Z,100138.03
2023-05-12T12:03:22.875Z,100130.16
2023-05-12T12:06:02.636Z,100136.34
2023-05-12T12:08:31.828Z,100132.88
2023-05-12T12:11:03.670Z,100132.91
2023-05-12T12:13:32.329Z,100138.19
2023-05-12T12:16:01.588Z,100135.66
2023-05-12T12:18:30.233Z,100134.03
2023-05-12T12:20:58.667Z,100140.22
2023-05-12T12:23:27.187Z,100138.56
2023-05-12T12:25:55.528Z,100135.13
2023-05-12T12:28:25.397Z,100154.41
2023-05-12T12:30:53.816Z,100130.84
2023-05-12T12:33:22.520Z,100133.47
2023-05-12T12:35:51.197Z,100134.38
2023-05-12T12:38:19.704Z,100128.28
2023-05-12T12:40:48.261Z,100134.47
2023-05-12T12:43:16.971Z,100142.41
2023-05-12T12:45:47.191Z,100139.88
2023-05-12T12:48:15.586Z,100139.09
2023-05-12T12:50:44.018Z,100137.41
2023-05-12T12:53:12.931Z,100132.25
2023-05-12T12:55:41.617Z,100128.81
2023-05-12T12:58:10.269Z,100121.91
2023-05-12T13:00:38.955Z,100132.53
2023-05-12T13:03:08.885Z,100126.50
2023-05-12T13:05:37.665Z,100135.34
2023-05-12T13:08:06.740Z,100136.28
2023-05-12T13:10:35.812Z,100131.13
2023-05-12T13:13:04.284Z,100124.19
2023-05-12T13:15:33.429Z,100126.91
2023-05-12T13:18:02.274Z,100122.59
2023-05-12T13:20:32.479Z,100117.41
2023-05-12T13:23:00.891Z,100118.28
2023-05-12T13:25:29.421Z,100122.63
2023-05-12T13:27:57.898Z,100118.25
2023-05-12T13:30:26.568Z,100120.88
2023-05-12T13:32:55.120Z,100119.97
2023-05-12T13:35:23.878Z,100124.34
2023-05-12T13:37:54.522Z,100114.75
2023-05-12T13:40:23.018Z,100120.88
2023-05-12T13:42:51.273Z,100115.63
2023-05-12T13:45:20.071Z,100122.63
2023-05-12T13:47:48.728Z,100117.41
2023-05-12T13:50:17.202Z,100118.28
2023-05-12T13:52:47.581Z,100113.94
2023-05-12T13:55:21.341Z,100115.69
2023-05-12T13:57:50.563Z,100119.19
2023-05-12T14:00:20.470Z,100106.94
2023-05-12T14:02:49.262Z,100103.47
2023-05-12T14:05:18.619Z,100111.38
2023-05-12T14:07:47.263Z,100102.63
2023-05-12T14:10:18.605Z,100098.28
2023-05-12T14:12:47.960Z,100093.94
2023-05-12T14:15:24.039Z,100093.09
2023-05-12T14:17:58.495Z,100089.59
2023-05-12T14:20:27.009Z,100091.38
2023-05-12T14:22:55.826Z,100092.28
2023-05-12T14:25:25.782Z,100084.50
2023-05-12T14:27:54.501Z,100082.84
2023-05-12T14:30:23.717Z,100077.66
2023-05-12T14:32:53.312Z,100086.53
2023-05-12T14:35:22.353Z,100085.78
2023-05-12T14:37:51.257Z,100101.66
2023-05-12T14:40:19.612Z,100099.13
2023-05-12T14:42:49.662Z,100102.69
2023-05-12T14:45:18.551Z,100109.66
2023-05-12T14:47:47.434Z,100114.03
2023-05-12T14:50:16.084Z,100125.38
2023-05-12T14:52:44.430Z,100137.59
2023-05-12T14:55:13.712Z,100147.19
2023-05-12T14:57:43.541Z,100151.53
2023-05-12T15:00:16.194Z,100163.72
2023-05-12T15:02:45.943Z,100172.28
2023-05-12T15:05:15.266Z,100171.31
2023-05-12T15:07:44.178Z,100173.84
2023-05-12T15:10:13.187Z,100167.63
2023-05-12T15:12:41.594Z,100159.66
2023-05-12T15:15:13.252Z,100164.84
2023-05-12T15:17:41.721Z,100165.63
2023-05-12T15:20:11.029Z,100160.31
2023-05-12T15:22:39.990Z,100161.16
2023-05-12T15:25:10.088Z,100148.03
2023-05-12T15:27:38.866Z,100148.03
2023-05-12T15:30:10.169Z,100142.81
2023-05-12T15:32:42.216Z,100152.50
2023-05-12T15:35:11.177Z,100138.53
2023-05-12T15:37:39.597Z,100133.34
2023-05-12T15:40:10.483Z,100131.66
2023-05-12T15:42:38.889Z,100129.97
2023-05-12T15:45:09.492Z,100127.38
2023-05-12T15:47:38.055Z,100130.06
2023-05-12T15:50:10.547Z,100130.97
2023-05-12T15:52:38.943Z,100125.72
2023-05-12T15:55:08.653Z,100131.91
2023-05-12T15:57:37.116Z,100120.59
2023-05-12T16:00:07.537Z,100131.09
2023-05-12T16:02:41.481Z,100133.72
2023-05-12T16:05:12.062Z,100132.00
2023-05-12T16:07:40.980Z,100124.16
2023-05-12T16:10:10.864Z,100133.84
2023-05-12T16:12:39.264Z,100126.84
2023-05-12T16:15:08.681Z,100125.13
2023-05-12T16:17:37.401Z,100119.88
2023-05-12T16:20:07.861Z,100112.94
2023-05-12T16:22:37.642Z,100123.44
2023-05-12T16:25:07.182Z,100113.81
2023-05-12T16:27:36.748Z,100109.47
2023-05-12T16:30:06.537Z,100105.97
2023-05-12T16:32:34.990Z,100113.84
2023-05-12T16:35:03.714Z,100112.13
2023-05-12T16:37:32.405Z,100112.13
2023-05-12T16:40:02.588Z,100111.22
2023-05-12T16:42:31.191Z,100114.72
2023-05-12T16:45:00.254Z,100122.63
2023-05-12T16:47:29.600Z,100124.41
2023-05-12T16:49:59.660Z,100114.78
2023-05-12T16:52:28.461Z,100113.91
2023-05-12T16:54:57.242Z,100120.91
2023-05-12T16:57:27.599Z,100127.06
2023-05-12T16:59:56.080Z,100126.22
2023-05-12T17:02:24.592Z,100117.50
2023-05-12T17:04:53.035Z,100128.88
2023-05-12T17:07:21.680Z,100137.66
2023-05-12T17:09:50.116Z,100137.66
2023-05-12T17:12:18.612Z,100145.53
2023-05-12T17:14:59.399Z,100142.03
2023-05-12T17:17:35.560Z,100152.47
2023-05-12T17:20:04.262Z,100155.09
2023-05-12T17:22:34.910Z,100159.47
2023-05-12T17:25:03.677Z,100154.22
2023-05-12T17:27:31.994Z,100155.97
2023-05-12T17:30:04.107Z,100158.59
2023-05-12T17:32:32.790Z,100156.84
2023-05-12T17:35:01.307Z,100162.09
2023-05-12T17:37:30.343Z,100170.81
2023-05-12T17:39:59.516Z,100167.34
2023-05-12T17:42:31.285Z,100164.72
2023-05-12T17:45:01.440Z,100168.19
2023-05-12T17:47:30.239Z,100176.00
2023-05-12T17:49:59.531Z,100170.75
2023-05-12T17:52:28.515Z,100164.63
2023-05-12T17:54:57.358Z,100164.59
2023-05-12T17:57:25.766Z,100167.22
2023-05-12T17:59:54.184Z,100171.56
2023-05-12T18:02:24.322Z,100170.69
2023-05-12T18:04:52.762Z,100168.94
2023-05-12T18:07:22.350Z,100167.13
2023-05-12T18:09:50.860Z,100168.81
2023-05-12T18:12:19.305Z,100172.28
2023-05-12T18:14:47.752Z,100174.03
2023-05-12T18:17:16.777Z,100182.72
2023-05-12T18:19:46.849Z,100183.56
2023-05-12T18:22:16.918Z,100186.97
2023-05-12T18:24:45.941Z,100187.78
2023-05-12T18:27:15.153Z,100191.28
2023-05-12T18:29:43.454Z,100186.88
2023-05-12T18:32:12.013Z,100192.13
2023-05-12T18:34:41.461Z,100190.38
2023-05-12T18:37:15.480Z,100189.50
2023-05-12T18:39:44.367Z,100192.94
2023-05-12T18:42:12.902Z,100199.97
2023-05-12T18:44:42.265Z,100194.72
2023-05-12T18:47:10.806Z,100202.59
2023-05-12T18:49:39.534Z,100200.78
2023-05-12T18:52:07.916Z,100201.63
2023-05-12T18:54:39.750Z,100199.84
2023-05-12T18:57:08.152Z,100205.06
2023-05-12T18:59:36.772Z,100212.03
2023-05-12T19:02:05.462Z,100211.16
2023-05-12T19:04:34.722Z,100214.63
2023-05-12T19:07:03.131Z,100224.19
2023-05-12T19:09:31.591Z,100221.53
2023-05-12T19:12:03.556Z,100223.31
2023-05-12T19:14:32.161Z,100227.66
2023-05-12T19:17:00.517Z,100234.66
2023-05-12T19:19:29.093Z,100232.91
2023-05-12T19:21:57.542Z,100237.25
2023-05-12T19:24:27.331Z,100233.78
2023-05-12T19:26:55.776Z,100232.88
2023-05-12T19:29:26.160Z,100245.94
2023-05-12T19:31:54.699Z,100239.81
2023-05-12T19:34:23.930Z,100236.31
2023-05-12T19:36:53.043Z,100243.25
2023-05-12T19:39:21.465Z,100239.69
2023-05-12T19:41:51.641Z,100250.19
2023-05-12T19:44:20.267Z,100244.91
2023-05-12T19:46:50.964Z,100238.72
2023-05-12T19:49:19.525Z,100244.81
2023-05-12T19:51:48.663Z,100252.69
2023-05-12T19:54:17.246Z,100254.34
2023-05-12T19:56:45.980Z,100256.06
2023-05-12T19:59:14.741Z,100253.38
2023-05-12T20:01:43.354Z,100262.97
2023-05-12T20:04:13.783Z,100255.91
2023-05-12T20:06:42.552Z,100270.72
2023-05-12T20:09:11.072Z,100265.44
2023-05-12T20:11:39.617Z,100274.06
2023-05-12T20:14:08.614Z,100272.28
2023-05-12T20:16:38.360Z,100277.47
2023-05-12T20:19:06.912Z,100273.09
2023-05-12T20:21:36.772Z,100280.91
2023-05-12T20:24:05.935Z,100277.34
2023-05-12T20:26:34.632Z,100282.53
2023-05-12T20:29:03.145Z,100280.72
2023-05-12T20:31:31.720Z,100279.81
2023-05-12T20:34:01.309Z,100296.38
2023-05-12T20:36:29.809Z,100291.03
2023-05-12T20:39:00.404Z,100290.09
2023-05-12T20:41:28.883Z,100290.91
2023-05-12T20:43:57.293Z,100289.16
2023-05-12T20:46:26.323Z,100294.31
2023-05-12T20:48:54.806Z,100298.66
2023-05-12T20:51:23.529Z,100289.88
2023-05-12T20:53:52.977Z,100299.41
2023-05-12T20:56:23.822Z,100293.28
2023-05-12T20:58:52.529Z,100297.59
2023-05-12T21:01:20.956Z,100304.53
2023-05-12T21:03:49.640Z,100301.91
2023-05-12T21:06:18.547Z,100302.69
2023-05-12T21:08:47.305Z,100303.53
2023-05-12T21:11:16.819Z,100300.88
2023-05-12T21:13:48.291Z,100313.97
2023-05-12T21:16:17.121Z,100311.25
2023-05-12T21:18:46.365Z,100312.09
2023-05-12T21:21:14.969Z,100314.66
2023-05-12T21:23:43.687Z,100315.44
2023-05-12T21:26:12.688Z,100321.50
2023-05-12T21:28:41.268Z,100322.28
2023-05-12T21:31:11.096Z,100320.53
2023-05-12T21:33:39.777Z,100321.34
2023-05-12T21:36:09.710Z,100319.53
2023-05-12T21:38:38.330Z,100325.56
2023-05-12T21:41:06.720Z,100321.97
2023-05-12T21:43:35.466Z,100320.22
2023-05-12T21:46:04.430Z,100329.75
2023-05-12T21:48:35.086Z,100326.22
2023-05-12T21:51:07.911Z,100330.53
2023-05-12T21:53:36.353Z,100327.81
2023-05-12T21:56:05.016Z,100328.66
2023-05-12T21:58:33.454Z,100328.66
2023-05-12T22:01:01.858Z,100329.44
2023-05-12T22:03:30.420Z,100334.63
2023-05-12T22:06:00.424Z,100337.22
2023-05-12T22:08:29.176Z,100341.53
2023-05-12T22:10:58.093Z,100336.22
2023-05-12T22:13:27.023Z,100337.91
2023-05-12T22:15:55.818Z,100337.03
2023-05-12T22:18:24.623Z,100338.69
2023-05-12T22:20:53.520Z,100337.75
2023-05-12T22:23:23.575Z,100338.59
2023-05-12T22:25:51.988Z,100342.09
2023-05-12T22:28:20.353Z,100342.94
2023-05-12T22:30:49.169Z,100345.44
2023-05-12T22:33:17.860Z,100342.84
2023-05-12T22:35:46.269Z,100334.97
2023-05-12T22:38:14.522Z,100349.78
2023-05-12T22:40:44.397Z,100344.50
2023-05-12T22:43:13.862Z,100342.69
2023-05-12T22:45:43.007Z,100338.28
2023-05-12T22:48:11.452Z,100339.06
2023-05-12T22:50:40.271Z,100340.78
2023-05-12T22:53:08.969Z,100337.09
2023-05-12T22:55:37.280Z,100343.09
2023-05-12T22:58:07.106Z,100343.91
2023-05-12T23:00:35.542Z,100336.84
2023-05-12T23:03:04.710Z,100330.69
2023-05-12T23:05:33.139Z,100334.19
2023-05-12T23:08:04.678Z,100334.13
2023-05-12T23:10:33.049Z,100337.53
2023-05-12T23:13:01.456Z,100332.34
2023-05-12T23:15:31.270Z,100336.69
2023-05-12T23:17:59.750Z,100327.94
2023-05-12T23:20:28.108Z,100329.63
2023-05-12T23:22:56.453Z,100326.06
2023-05-12T23:25:25.029Z,100330.41
2023-05-12T23:27:53.499Z,100335.63
2023-05-12T23:30:21.954Z,100332.94
2023-05-12T23:32:52.032Z,100331.16
2023-05-12T23:35:20.557Z,100336.28
2023-05-12T23:37:49.270Z,100335.28
2023-05-12T23:40:17.652Z,100334.44
2023-05-12T23:42:46.140Z,100335.22
2023-05-12T23:45:15.676Z,100339.50
2023-05-12T23:47:44.241Z,100336.00
2023-05-12T23:50:14.134Z,100324.66
2023-05-12T23:52:42.499Z,100324.59
2023-05-12T23:55:11.693Z,100327.16
2023-05-12T23:57:40.281Z,100330.63
